Time;durP1;ratioP1;P1;durP2;ratioP2;P2;SDS_P1;SDS_P2;PMS_P1;PMS_P2;Temp;Humidity;BMP_temperature;BMP_pressure;BME280_temperature;BME280_humidity;BME280_pressure;Samples;Min_cycle;Max_cycle;Signal;HPM_P1;HPM_P2
2022/03/30 04:00:30;;;;;;;49.23;26.17;;;2.60;96.30;;;;;;6061912;23;21507;31
2022/03/30 04:02:55;;;;;;;46.53;24.03;;;2.60;96.30;;;;;;4902379;29;20461;-82
2022/03/30 04:05:20;;;;;;;46.93;27.13;;;2.50;96.30;;;;;;4925533;29;20469;-81
2022/03/30 04:07:46;;;;;;;51.43;25.30;;;2.50;96.30;;;;;;4924720;29;20188;-80
2022/03/30 04:10:12;;;;;;;50.20;28.80;;;2.50;96.30;;;;;;4925230;29;20188;-79
2022/03/30 04:12:38;;;;;;;56.90;27.27;;;2.40;96.30;;;;;;4958475;29;20558;-78
2022/03/30 04:15:05;;;;;;;50.93;23.77;;;2.50;96.30;;;;;;4953831;29;20520;-79
2022/03/30 04:17:32;;;;;;;52.13;26.00;;;2.50;96.30;;;;;;4923830;29;20474;-78
2022/03/30 04:19:58;;;;;;;47.07;27.30;;;2.50;96.30;;;;;;4901215;29;20955;-76
2022/03/30 04:22:23;;;;;;;49.67;28.60;;;2.50;96.30;;;;;;4918812;29;20437;-76
2022/03/30 04:24:49;;;;;;;52.53;26.80;;;2.50;96.30;;;;;;4918551;29;20283;-75
2022/03/30 04:27:15;;;;;;;53.17;27.47;;;2.50;96.30;;;;;;4918113;29;20180;-76
2022/03/30 04:29:40;;;;;;;44.93;27.13;;;2.60;96.30;;;;;;4931714;29;20181;-76
2022/03/30 04:48:37;;;;;;;;;;;;;;;;;;;;;
2022/03/30 05:55:35;;;;;;;47.33;25.10;;;2.90;96.30;;;;;;514786;26;20770;-80
2022/03/30 05:58:03;;;;;;;42.87;24.80;;;2.90;96.30;;;;;;4981448;28;20816;-79
2022/03/30 06:00:29;;;;;;;49.77;27.70;;;3.00;96.30;;;;;;4967251;28;20480;-80
2022/03/30 06:02:56;;;;;;;44.67;26.10;;;3.00;96.30;;;;;;4956982;28;20513;-79
2022/03/30 06:05:23;;;;;;;58.70;28.57;;;3.10;96.30;;;;;;4956942;28;20514;-77
2022/03/30 06:07:48;;;;;;;48.13;28.70;;;3.20;96.30;;;;;;4954476;28;20421;-77
2022/03/30 06:10:15;;;;;;;47.60;27.77;;;3.20;96.30;;;;;;4973320;28;20414;-77
2022/03/30 06:12:40;;;;;;;64.73;28.27;;;3.30;96.30;;;;;;4956309;28;20213;-77
2022/03/30 06:15:07;;;;;;;50.60;28.07;;;3.20;96.30;;;;;;4956337;28;20425;-77
2022/03/30 06:17:33;;;;;;;51.77;30.67;;;3.20;96.30;;;;;;4955987;28;20297;-77
2022/03/30 06:19:59;;;;;;;57.20;30.60;;;3.20;96.30;;;;;;4956166;28;20497;-77
2022/03/30 06:22:29;;;;;;;51.57;29.07;;;3.30;96.30;;;;;;4973302;28;20191;-77
2022/03/30 06:24:55;;;;;;;53.67;29.03;;;3.30;96.30;;;;;;4956414;28;20410;-77
2022/03/30 06:27:22;;;;;;;58.93;30.93;;;3.60;96.30;;;;;;4957234;28;20532;-77
2022/03/30 06:29:47;;;;;;;49.73;30.83;;;3.70;96.30;;;;;;4977015;28;20182;-77
2022/03/30 06:32:13;;;;;;;58.50;31.60;;;3.90;96.30;;;;;;4960053;28;20445;-77
2022/03/30 06:34:40;;;;;;;58.67;32.57;;;4.00;96.30;;;;;;4959501;28;20213;-77
2022/03/30 06:37:06;;;;;;;60.03;35.40;;;4.00;96.30;;;;;;4960851;28;20209;-77
2022/03/30 06:39:35;;;;;;;59.80;33.33;;;4.20;96.30;;;;;;4959655;28;20464;-78
2022/03/30 06:42:03;;;;;;;59.90;34.90;;;4.20;96.30;;;;;;4977160;28;20496;-78
2022/03/30 06:44:29;;;;;;;53.07;32.10;;;4.20;96.30;;;;;;4960483;28;20424;-77
2022/03/30 06:46:54;;;;;;;61.93;33.30;;;4.40;96.30;;;;;;4960555;28;20441;-80
2022/03/30 06:49:21;;;;;;;62.50;36.30;;;4.50;96.30;;;;;;4976762;28;20178;-77
2022/03/30 06:51:46;;;;;;;70.57;37.07;;;4.50;96.30;;;;;;4978188;28;20190;-78
2022/03/30 06:54:12;;;;;;;55.67;32.60;;;4.50;96.30;;;;;;4962753;28;20432;-77
2022/03/30 06:56:37;;;;;;;64.13;36.80;;;4.50;96.30;;;;;;4962966;28;20209;-78
2022/03/30 06:59:03;;;;;;;64.60;36.33;;;4.60;96.30;;;;;;4962162;28;20167;-79
2022/03/30 07:01:28;;;;;;;61.47;35.77;;;4.50;96.30;;;;;;4969773;28;20269;-77
2022/03/30 07:03:54;;;;;;;58.00;33.80;;;4.50;96.30;;;;;;4960113;29;20183;-77
2022/03/30 07:06:20;;;;;;;56.07;31.57;;;4.50;96.30;;;;;;4943460;28;20181;-79
2022/03/30 07:11:29;;;;;;;56.07;34.13;;;4.30;96.30;;;;;;4981158;28;20285;-82
2022/03/30 07:13:57;;;;;;;62.80;32.50;;;4.40;96.30;;;;;;4969430;28;20882;-81
2022/03/30 07:16:23;;;;;;;51.67;31.20;;;4.30;96.30;;;;;;4965233;28;20301;-81
2022/03/30 07:18:49;;;;;;;59.03;33.47;;;4.30;96.30;;;;;;4962827;28;20983;-81
2022/03/30 07:21:15;;;;;;;63.80;33.90;;;4.20;96.30;;;;;;4964650;28;20461;-81
2022/03/30 07:23:40;;;;;;;62.83;33.60;;;4.30;96.30;;;;;;4961030;28;20185;-81
2022/03/30 07:26:06;;;;;;;56.73;33.53;;;4.30;96.30;;;;;;4945217;29;20194;-81
2022/03/30 07:28:32;;;;;;;61.37;30.57;;;4.30;96.30;;;;;;4944878;29;20782;-81
2022/03/30 07:30:57;;;;;;;59.53;31.63;;;4.30;96.30;;;;;;4962563;29;20199;-81
2022/03/30 07:33:23;;;;;;;58.47;32.60;;;4.30;96.30;;;;;;4960958;29;20202;-81
2022/03/30 07:35:49;;;;;;;51.47;31.83;;;4.30;96.30;;;;;;4958817;28;20198;-81
2022/03/30 07:38:20;;;;;;;52.60;31.50;;;4.30;96.30;;;;;;4958957;28;20464;-81
2022/03/30 07:40:49;;;;;;;53.87;31.43;;;4.20;96.30;;;;;;4959579;28;20437;-77
2022/03/30 07:43:17;;;;;;;53.07;32.23;;;4.30;96.30;;;;;;4976185;28;20469;-77
2022/03/30 07:45:43;;;;;;;60.50;36.37;;;4.20;96.30;;;;;;4961418;28;20618;-77
2022/03/30 07:48:09;;;;;;;60.20;35.97;;;4.30;96.30;;;;;;4942314;29;20497;-80
2022/03/30 07:50:36;;;;;;;60.73;35.57;;;4.30;96.30;;;;;;4942212;29;20198;-80
2022/03/30 07:53:02;;;;;;;57.30;34.00;;;4.40;96.30;;;;;;4958905;29;20418;-77
2022/03/30 07:55:28;;;;;;;56.53;32.77;;;4.50;96.30;;;;;;4942414;29;20437;-79
2022/03/30 07:57:54;;;;;;;51.57;30.67;;;4.50;96.30;;;;;;4940424;29;20466;-77
2022/03/30 08:00:21;;;;;;;56.60;33.60;;;4.50;96.30;;;;;;4957591;29;20163;-77
2022/03/30 08:02:47;;;;;;;53.90;31.27;;;4.60;96.30;;;;;;4939304;29;20425;-77
2022/03/30 08:05:13;;;;;;;55.87;31.80;;;4.70;96.30;;;;;;4957735;29;20516;-77
2022/03/30 08:07:40;;;;;;;56.27;33.00;;;4.80;96.30;;;;;;4957164;29;20410;-77
2022/03/30 08:10:08;;;;;;;53.57;30.70;;;4.80;96.30;;;;;;4940215;29;20907;-79
2022/03/30 08:12:40;;;;;;;58.53;32.73;;;4.80;96.30;;;;;;4939801;29;20996;-81
2022/03/30 08:15:06;;;;;;;54.80;31.40;;;4.80;96.30;;;;;;4957021;29;20789;-80
2022/03/30 08:17:32;;;;;;;56.07;31.03;;;4.70;96.30;;;;;;4958591;28;20457;-79
2022/03/30 08:19:59;;;;;;;52.40;32.00;;;4.80;96.30;;;;;;4958592;28;20975;-78
2022/03/30 08:22:28;;;;;;;61.00;32.50;;;4.80;96.30;;;;;;4958312;28;20202;-78
2022/03/30 08:25:03;;;;;;;54.90;31.90;;;4.80;96.30;;;;;;4975875;28;20432;-78
2022/03/30 08:27:31;;;;;;;54.60;32.47;;;4.80;96.30;;;;;;4958377;28;20444;-78
2022/03/30 08:29:58;;;;;;;50.17;30.53;;;4.80;96.30;;;;;;4958336;28;20414;-77
2022/03/30 08:32:24;;;;;;;57.73;31.03;;;4.80;96.30;;;;;;4975905;28;20425;-77
2022/03/30 08:34:51;;;;;;;51.30;29.93;;;4.80;96.30;;;;;;4976254;28;20901;-77
2022/03/30 08:37:17;;;;;;;60.67;32.53;;;4.80;96.30;;;;;;4976157;28;20198;-78
2022/03/30 08:39:43;;;;;;;62.27;32.13;;;4.80;96.30;;;;;;4958669;28;20429;-79
2022/03/30 08:42:09;;;;;;;55.10;31.50;;;4.90;96.30;;;;;;4976340;28;20192;-77
2022/03/30 08:44:37;;;;;;;53.90;30.60;;;4.90;96.30;;;;;;4976019;28;20225;-77
2022/03/30 08:47:04;;;;;;;50.47;32.20;;;4.90;96.30;;;;;;4976186;28;20418;-78
2022/03/30 08:49:35;;;;;;;54.10;32.70;;;4.80;96.30;;;;;;4958640;28;20441;-77
2022/03/30 08:52:02;;;;;;;55.00;31.20;;;4.70;96.30;;;;;;4975989;28;20768;-76
2022/03/30 08:54:27;;;;;;;53.27;31.90;;;4.70;96.30;;;;;;4958671;28;20422;-77
2022/03/30 08:56:53;;;;;;;49.77;29.20;;;4.70;96.30;;;;;;4958053;28;20511;-78
2022/03/30 08:59:22;;;;;;;48.90;30.10;;;4.70;96.30;;;;;;4958381;28;20194;-79
2022/03/30 09:01:49;;;;;;;48.40;30.03;;;4.70;96.30;;;;;;4975752;28;20429;-77
2022/03/30 09:04:17;;;;;;;47.07;29.37;;;4.70;96.30;;;;;;4958381;28;20422;-76
2022/03/30 09:06:44;;;;;;;58.40;31.33;;;4.70;96.30;;;;;;4957620;28;20422;-76
2022/03/30 09:09:10;;;;;;;64.97;30.90;;;4.80;96.30;;;;;;4974832;28;20416;-78
2022/03/30 09:11:52;;;;;;;55.70;31.60;;;4.70;96.30;;;;;;4974881;28;20492;-77
2022/03/30 09:14:20;;;;;;;52.33;31.07;;;4.70;96.30;;;;;;4958612;28;20846;-77
2022/03/30 09:16:50;;;;;;;53.20;33.93;;;4.70;96.30;;;;;;4959068;28;20460;-77
2022/03/30 09:19:18;;;;;;;57.53;32.30;;;4.90;96.30;;;;;;4958440;28;20444;-82
2022/03/30 09:21:46;;;;;;;56.03;32.10;;;4.80;96.30;;;;;;4958610;28;20459;-81
2022/03/30 09:24:13;;;;;;;47.80;30.93;;;4.90;96.30;;;;;;4960049;28;20422;-78
2022/03/30 09:26:39;;;;;;;55.37;31.73;;;4.80;96.30;;;;;;4957200;28;20406;-79
2022/03/30 09:29:05;;;;;;;52.70;31.47;;;4.70;96.30;;;;;;4956911;28;20426;-79
2022/03/30 09:31:31;;;;;;;51.40;32.37;;;4.80;96.30;;;;;;4957036;28;20195;-78
2022/03/30 09:34:05;;;;;;;50.27;30.73;;;4.90;96.30;;;;;;4974322;28;20461;-78
2022/03/30 09:36:33;;;;;;;51.10;29.77;;;4.80;96.30;;;;;;4956742;28;20469;-80
2022/03/30 09:38:58;;;;;;;46.60;28.77;;;4.70;96.30;;;;;;4956930;28;20466;-80
2022/03/30 09:41:24;;;;;;;59.00;32.43;;;4.70;96.30;;;;;;4937896;29;20481;-77
2022/03/30 09:44:02;;;;;;;53.17;31.90;;;4.60;96.30;;;;;;4955043;29;20226;-78
2022/03/30 09:46:28;;;;;;;52.83;31.40;;;4.60;96.30;;;;;;4937742;29;20431;-78
2022/03/30 09:48:54;;;;;;;55.57;31.47;;;4.60;96.30;;;;;;4937670;29;20505;-78
2022/03/30 09:51:22;;;;;;;54.00;30.37;;;4.70;96.30;;;;;;4937744;29;20951;-77
2022/03/30 09:53:48;;;;;;;46.57;29.00;;;4.60;96.30;;;;;;4937636;29;20791;-78
2022/03/30 09:56:22;;;;;;;53.93;30.50;;;4.70;96.30;;;;;;4969692;28;20784;-77
2022/03/30 09:58:49;;;;;;;54.43;31.17;;;4.70;96.30;;;;;;4973656;28;20441;-76
2022/03/30 10:01:22;;;;;;;44.83;28.97;;;4.70;96.30;;;;;;4973787;28;20426;-75
2022/03/30 10:03:55;;;;;;;46.27;29.43;;;4.80;96.30;;;;;;4959590;28;20427;-77
2022/03/30 10:06:27;;;;;;;48.67;29.30;;;4.90;96.30;;;;;;4954135;29;20509;-77
2022/03/30 10:08:54;;;;;;;50.27;31.87;;;4.80;96.30;;;;;;4935498;29;20562;-77
2022/03/30 10:11:21;;;;;;;40.33;23.30;;;4.70;96.30;;;;;;4954466;29;20906;-78
2022/03/30 10:13:50;;;;;;;40.03;25.67;;;4.60;96.30;;;;;;4954532;29;20478;-78
2022/03/30 10:16:17;;;;;;;41.83;27.00;;;4.60;96.30;;;;;;4937413;29;20423;-77
2022/03/30 10:18:43;;;;;;;42.60;26.47;;;4.70;96.30;;;;;;4956385;29;20517;-82
2022/03/30 10:23:50;;;;;;;50.97;28.23;;;4.60;96.30;;;;;;5607065;23;20862;-78
2022/03/30 10:26:33;;;;;;;37.00;23.57;;;4.60;96.30;;;;;;4992295;28;20405;-76
2022/03/30 10:29:05;;;;;;;42.13;25.90;;;4.60;96.30;;;;;;4975286;28;20428;-79
2022/03/30 10:31:30;;;;;;;42.70;26.70;;;4.50;96.30;;;;;;4992981;28;20429;-78
2022/03/30 10:33:57;;;;;;;44.93;25.20;;;4.50;96.30;;;;;;4975854;28;20752;-79
2022/03/30 10:36:28;;;;;;;37.80;25.30;;;4.60;96.30;;;;;;4975809;28;20200;-80
2022/03/30 10:39:15;;;;;;;43.63;26.00;;;4.60;96.30;;;;;;4974833;28;20429;-77
2022/03/30 10:42:04;;;;;;;42.23;26.33;;;4.60;96.30;;;;;;4975825;28;20433;-77
2022/03/30 10:44:41;;;;;;;40.00;25.87;;;4.50;96.30;;;;;;4993433;28;20416;-77
2022/03/30 10:47:18;;;;;;;41.93;25.60;;;4.50;96.30;;;;;;4993303;28;20540;-77
2022/03/30 10:49:50;;;;;;;38.33;25.30;;;4.50;96.30;;;;;;4993056;28;20415;-77
2022/03/30 10:52:39;;;;;;;47.90;26.60;;;4.50;96.30;;;;;;4993334;28;20503;-78
2022/03/30 10:55:13;;;;;;;35.47;20.37;;;4.60;96.30;;;;;;4975877;28;20421;-77
2022/03/30 10:57:57;;;;;;;38.27;24.00;;;4.60;96.30;;;;;;4975683;28;21226;-77
2022/03/30 11:00:37;;;;;;;46.07;23.10;;;4.60;96.30;;;;;;4993310;28;20775;-77
2022/03/30 11:03:16;;;;;;;34.87;23.37;;;4.50;96.30;;;;;;4975491;28;20424;-77
2022/03/30 11:06:00;;;;;;;41.73;24.23;;;4.60;96.30;;;;;;4993189;28;20451;-80
2022/03/30 11:08:32;;;;;;;37.63;24.20;;;4.60;96.30;;;;;;4975616;28;20432;-78
2022/03/30 11:11:00;;;;;;;38.00;23.20;;;4.60;96.30;;;;;;4993124;28;20983;-77
2022/03/30 11:13:26;;;;;;;38.53;21.67;;;4.80;96.30;;;;;;4980786;28;20472;-79
2022/03/30 11:15:59;;;;;;;32.53;19.73;;;4.70;96.30;;;;;;4956123;28;20432;-78
2022/03/30 11:18:26;;;;;;;35.53;25.27;;;4.70;96.30;;;;;;4986255;28;20457;-77
2022/03/30 11:21:14;;;;;;;34.77;21.70;;;4.60;96.30;;;;;;4992371;28;20979;-76
2022/03/30 11:24:01;;;;;;;38.43;22.47;;;4.50;96.30;;;;;;4992729;28;20495;-79
2022/03/30 11:26:49;;;;;;;38.37;23.30;;;4.60;96.30;;;;;;4992980;28;20467;-81
2022/03/30 11:29:39;;;;;;;42.23;22.57;;;4.80;96.30;;;;;;4975422;28;20429;-81
2022/03/30 11:32:34;;;;;;;37.37;22.70;;;4.70;96.30;;;;;;4970655;28;20444;-81
2022/03/30 11:35:05;;;;;;;41.83;23.37;;;4.80;96.30;;;;;;4973690;28;20503;-80
2022/03/30 11:37:40;;;;;;;37.00;23.00;;;4.90;96.30;;;;;;4985562;28;20444;-81
2022/03/30 11:40:15;;;;;;;36.83;25.00;;;4.80;96.30;;;;;;4974210;28;20832;-79
2022/03/30 11:42:44;;;;;;;34.50;23.37;;;4.80;96.30;;;;;;4980528;28;20430;-80
2022/03/30 11:45:21;;;;;;;38.40;25.47;;;4.90;96.30;;;;;;4989694;28;20508;-80
2022/03/30 11:47:47;;;;;;;40.70;23.43;;;4.90;96.30;;;;;;4976619;28;20448;-80
2022/03/30 11:50:16;;;;;;;40.80;24.37;;;4.80;96.30;;;;;;4977341;28;20870;-78
2022/03/30 11:52:42;;;;;;;34.80;23.10;;;4.70;96.30;;;;;;4987882;28;20426;-79
2022/03/30 11:55:09;;;;;;;35.50;21.07;;;4.60;96.30;;;;;;4974794;28;20921;-80
2022/03/30 11:57:41;;;;;;;36.80;22.70;;;4.60;96.30;;;;;;4961466;28;20449;-80
2022/03/30 12:00:09;;;;;;;33.57;20.93;;;4.60;96.30;;;;;;4975856;28;20420;-80
2022/03/30 12:02:37;;;;;;;33.83;21.07;;;4.50;96.30;;;;;;4973710;28;20452;-80
2022/03/30 12:05:02;;;;;;;28.90;19.80;;;4.50;96.30;;;;;;4963774;28;20432;-79
2022/03/30 12:07:34;;;;;;;32.30;20.10;;;4.40;96.30;;;;;;4982821;28;20418;-79
2022/03/30 12:10:00;;;;;;;29.33;18.80;;;4.40;96.30;;;;;;4957551;28;20658;-79
2022/03/30 12:12:36;;;;;;;35.17;19.43;;;4.40;96.30;;;;;;4978120;28;20482;-80
2022/03/30 12:15:22;;;;;;;39.67;22.30;;;4.30;96.30;;;;;;4974893;28;20188;-79
2022/03/30 12:17:53;;;;;;;29.20;20.87;;;4.30;96.30;;;;;;4974251;28;20544;-79
2022/03/30 12:20:28;;;;;;;34.30;23.10;;;4.40;96.30;;;;;;4973753;28;20420;-79
2022/03/30 12:23:05;;;;;;;36.27;21.80;;;4.40;96.30;;;;;;4964522;28;20476;-78
2022/03/30 12:25:41;;;;;;;32.33;22.23;;;4.40;96.30;;;;;;4961113;28;20437;-78
2022/03/30 12:28:07;;;;;;;30.33;20.10;;;4.50;96.30;;;;;;4979264;28;20431;-77
2022/03/30 12:30:37;;;;;;;25.90;19.50;;;4.30;96.30;;;;;;4968327;28;20836;-78
2022/03/30 12:33:03;;;;;;;30.73;17.97;;;4.40;96.30;;;;;;4982468;28;20228;-77
2022/03/30 12:35:31;;;;;;;26.47;17.40;;;4.30;96.30;;;;;;4995625;28;20412;-79
2022/03/30 12:38:15;;;;;;;27.23;18.13;;;4.20;96.30;;;;;;4977658;28;20201;-81
2022/03/30 12:40:43;;;;;;;30.67;18.30;;;4.20;96.30;;;;;;4994876;28;20820;-73
2022/03/30 12:43:10;;;;;;;17.60;11.40;;;4.10;96.30;;;;;;4994830;28;20408;-75
2022/03/30 12:45:46;;;;;;;21.60;14.90;;;4.00;96.30;;;;;;4994093;28;20448;-73
2022/03/30 12:48:12;;;;;;;20.60;14.90;;;3.90;96.30;;;;;;4994327;28;20408;-74
2022/03/30 12:50:38;;;;;;;21.27;14.97;;;3.90;96.30;;;;;;4992942;28;20951;-74
2022/03/30 12:53:15;;;;;;;27.20;16.93;;;3.90;96.30;;;;;;4994163;28;20642;-76
2022/03/30 12:55:42;;;;;;;20.10;14.40;;;3.90;96.30;;;;;;4994450;28;20165;-74
2022/03/30 12:58:15;;;;;;;22.37;14.90;;;3.80;96.30;;;;;;4976167;28;20453;-75
2022/03/30 13:00:44;;;;;;;19.20;13.13;;;3.70;96.30;;;;;;4976685;28;20441;-74
2022/03/30 13:03:30;;;;;;;24.07;14.60;;;3.70;96.30;;;;;;4994121;28;20913;-74
2022/03/30 13:06:04;;;;;;;19.60;13.60;;;3.70;96.30;;;;;;4993924;28;20417;-74
2022/03/30 13:08:29;;;;;;;19.10;12.73;;;3.70;96.30;;;;;;4994890;28;20421;-79
2022/03/30 13:11:03;;;;;;;29.17;15.80;;;3.60;96.30;;;;;;4976730;28;20475;-79
2022/03/30 13:13:38;;;;;;;18.43;13.83;;;3.50;96.30;;;;;;4994513;28;20181;-79
2022/03/30 13:16:06;;;;;;;25.73;14.30;;;3.50;96.30;;;;;;4977887;28;20428;-79
2022/03/30 13:18:33;;;;;;;16.20;10.80;;;3.50;96.30;;;;;;4994601;28;20822;-79
2022/03/30 13:21:01;;;;;;;18.27;11.90;;;3.40;96.30;;;;;;4977767;28;20447;-81
2022/03/30 13:23:39;;;;;;;18.90;11.37;;;3.40;96.30;;;;;;4995262;28;20449;-79
2022/03/30 13:26:30;;;;;;;14.40;9.97;;;3.40;96.30;;;;;;4994714;28;20409;-79
2022/03/30 13:28:56;;;;;;;14.00;10.27;;;3.40;96.30;;;;;;4994758;28;20401;-80
2022/03/30 13:31:22;;;;;;;22.33;12.43;;;3.40;96.30;;;;;;4977105;28;20563;-79
2022/03/30 13:33:56;;;;;;;21.77;12.37;;;3.40;96.30;;;;;;5010120;28;20504;-80
2022/03/30 13:36:22;;;;;;;14.20;10.50;;;3.50;96.30;;;;;;4977477;28;20178;-79
2022/03/30 13:38:50;;;;;;;13.63;9.43;;;3.40;96.30;;;;;;4994516;28;20956;-80
2022/03/30 13:41:16;;;;;;;13.10;10.70;;;3.40;96.30;;;;;;4977500;28;20449;-79
2022/03/30 13:43:43;;;;;;;12.50;10.00;;;3.40;96.30;;;;;;4993841;28;20448;-80
2022/03/30 13:46:09;;;;;;;12.47;8.50;;;3.50;96.30;;;;;;4977605;28;20421;-80
2022/03/30 13:48:34;;;;;;;12.80;9.20;;;3.30;96.30;;;;;;4977393;28;20439;-81
2022/03/30 13:51:00;;;;;;;14.30;10.50;;;3.30;96.30;;;;;;4977590;28;20255;-80
2022/03/30 13:53:36;;;;;;;12.73;9.17;;;3.30;96.30;;;;;;4977562;28;20216;-80
2022/03/30 13:56:03;;;;;;;12.80;9.17;;;3.30;96.30;;;;;;4993679;28;20181;-80
2022/03/30 13:58:30;;;;;;;12.03;8.90;;;3.20;96.30;;;;;;4994027;28;21062;-80
2022/03/30 14:00:57;;;;;;;10.43;9.00;;;3.10;96.30;;;;;;4993267;28;20510;-79
2022/03/30 14:03:23;;;;;;;13.10;9.07;;;3.20;96.30;;;;;;4977104;28;20513;-78
2022/03/30 14:05:49;;;;;;;10.93;7.83;;;3.10;96.30;;;;;;4993992;28;20463;-79
2022/03/30 14:08:15;;;;;;;12.83;8.00;;;3.10;96.30;;;;;;4993553;28;20939;-79
2022/03/30 14:10:41;;;;;;;12.10;7.87;;;3.00;96.30;;;;;;4993690;28;20492;-79
2022/03/30 14:13:07;;;;;;;13.97;8.50;;;2.90;96.30;;;;;;4993744;28;20196;-79
2022/03/30 14:15:33;;;;;;;10.17;8.23;;;2.90;96.30;;;;;;4994179;28;20212;-80
2022/03/30 14:18:01;;;;;;;5.70;4.47;;;2.90;96.30;;;;;;5008655;28;20897;-79
2022/03/30 14:20:27;;;;;;;9.60;7.47;;;2.80;96.30;;;;;;4994592;28;20178;-79
2022/03/30 14:22:52;;;;;;;10.57;7.40;;;2.80;96.30;;;;;;4977288;28;20471;-78
2022/03/30 14:25:18;;;;;;;11.77;9.40;;;2.80;96.30;;;;;;4976449;28;20205;-78
2022/03/30 14:27:44;;;;;;;12.07;8.40;;;2.80;96.30;;;;;;4993268;28;20170;-78
2022/03/30 14:30:12;;;;;;;13.70;8.27;;;2.80;96.30;;;;;;4993212;28;20408;-78
2022/03/30 14:32:38;;;;;;;12.93;8.50;;;2.60;96.30;;;;;;4993066;28;20440;-78
2022/03/30 14:35:05;;;;;;;11.17;9.23;;;2.60;96.30;;;;;;4975641;28;20781;-78
2022/03/30 14:37:31;;;;;;;11.43;9.10;;;2.60;96.30;;;;;;4991354;28;20456;-77
2022/03/30 14:40:01;;;;;;;13.40;8.50;;;2.50;96.30;;;;;;4992971;28;20787;-78
2022/03/30 14:42:27;;;;;;;14.23;7.43;;;2.50;96.30;;;;;;4993225;28;20468;-78
2022/03/30 14:44:52;;;;;;;14.67;9.40;;;2.60;96.30;;;;;;4993045;28;20405;-78
2022/03/30 14:47:18;;;;;;;10.10;6.73;;;2.60;96.30;;;;;;4992674;28;20637;-77
2022/03/30 14:49:45;;;;;;;8.33;5.83;;;2.50;96.30;;;;;;4992469;28;20185;-77
2022/03/30 14:52:13;;;;;;;6.57;5.87;;;2.40;96.30;;;;;;4992419;28;20205;-78
2022/03/30 14:54:38;;;;;;;8.17;6.20;;;2.30;96.30;;;;;;4992677;28;20935;-77
2022/03/30 14:57:04;;;;;;;8.70;6.13;;;2.20;96.30;;;;;;4992274;28;20480;-77
2022/03/30 14:59:30;;;;;;;9.50;7.80;;;2.20;96.30;;;;;;4992205;28;20181;-75
2022/03/30 15:01:55;;;;;;;9.17;7.03;;;2.20;96.30;;;;;;4992435;28;20205;-78
2022/03/30 15:04:20;;;;;;;11.00;7.47;;;2.20;96.30;;;;;;4992585;28;20626;-78
2022/03/30 15:06:46;;;;;;;8.80;6.27;;;2.10;96.30;;;;;;4992609;28;20174;-77
2022/03/30 15:09:12;;;;;;;9.27;6.70;;;2.10;96.30;;;;;;4992017;28;20177;-77
2022/03/30 15:11:38;;;;;;;10.30;7.47;;;2.20;96.30;;;;;;4975210;28;20248;-78
2022/03/30 15:14:04;;;;;;;6.90;6.20;;;2.10;96.30;;;;;;4978761;28;20166;-78
2022/03/30 15:16:29;;;;;;;9.17;7.03;;;2.10;96.30;;;;;;4979007;28;20425;-78
2022/03/30 15:18:55;;;;;;;12.00;6.90;;;2.10;96.30;;;;;;4996073;28;20462;-78
2022/03/30 15:21:20;;;;;;;10.40;6.57;;;2.20;96.30;;;;;;4995952;28;20193;-78
2022/03/30 15:23:46;;;;;;;11.97;8.97;;;2.10;96.30;;;;;;4996413;28;20228;-77
2022/03/30 15:26:12;;;;;;;12.40;9.20;;;2.10;96.30;;;;;;4993427;28;20201;-77
2022/03/30 15:28:37;;;;;;;11.40;9.20;;;2.10;96.30;;;;;;4976712;28;20509;-77
2022/03/30 15:31:03;;;;;;;12.53;9.50;;;2.20;96.30;;;;;;4995349;28;20217;-77
2022/03/30 15:33:29;;;;;;;10.37;8.40;;;2.10;96.30;;;;;;4984338;28;20248;-77
2022/03/30 15:35:58;;;;;;;9.97;7.47;;;2.10;96.30;;;;;;4991275;28;20770;-77
2022/03/30 15:38:24;;;;;;;10.73;7.47;;;2.00;96.30;;;;;;4987698;28;20464;-78
2022/03/30 15:40:50;;;;;;;11.13;8.80;;;2.00;96.30;;;;;;4978467;28;20499;-78
2022/03/30 15:43:16;;;;;;;9.80;8.80;;;2.00;96.30;;;;;;4985814;28;20416;-78
2022/03/30 15:45:42;;;;;;;9.20;7.87;;;2.10;96.30;;;;;;4974958;28;20185;-77
2022/03/30 15:48:09;;;;;;;10.00;8.50;;;2.10;96.30;;;;;;4990074;28;20247;-77
2022/03/30 15:50:35;;;;;;;12.40;10.73;;;2.10;96.30;;;;;;4987447;28;20440;-79
2022/03/30 15:53:00;;;;;;;14.93;9.50;;;2.00;96.30;;;;;;4979683;28;20449;-78
2022/03/30 15:55:26;;;;;;;10.10;8.90;;;2.00;96.30;;;;;;4976083;28;20210;-77
2022/03/30 15:57:53;;;;;;;8.53;7.63;;;1.90;96.30;;;;;;4989409;28;20277;-78
2022/03/30 16:00:19;;;;;;;9.77;8.07;;;2.00;96.30;;;;;;4975944;28;20177;-77
2022/03/30 16:02:44;;;;;;;8.27;7.47;;;2.00;96.30;;;;;;4977384;28;20420;-78
2022/03/30 16:05:10;;;;;;;9.47;8.23;;;2.00;96.30;;;;;;4966285;28;20417;-79
2022/03/30 16:08:53;;;;;;;8.53;7.63;;;2.00;96.30;;;;;;4977042;28;20196;-79
2022/03/30 16:10:21;;;;;;;7.80;5.47;;;1.90;96.30;;;;;;4987032;28;20663;-79
2022/03/30 16:12:47;;;;;;;9.47;8.47;;;1.90;96.30;;;;;;4972936;28;20431;-78
2022/03/30 16:15:12;;;;;;;7.33;5.93;;;1.90;96.30;;;;;;4977688;28;20185;-78
2022/03/30 16:17:38;;;;;;;6.77;5.87;;;1.90;96.30;;;;;;4994818;28;20232;-79
2022/03/30 16:20:18;;;;;;;5.70;5.20;;;1.90;96.30;;;;;;4997223;28;20709;-74
2022/03/30 16:25:18;;;;;;;8.23;7.20;;;1.90;96.30;;;;;;5405791;23;20483;-76
2022/03/30 16:27:44;;;;;;;9.60;8.60;;;1.90;96.30;;;;;;4998147;28;20478;-75
2022/03/30 16:30:13;;;;;;;7.43;6.63;;;1.90;96.30;;;;;;4997709;28;20408;-75
2022/03/30 16:48:05;;;;;;;5.33;4.83;;;1.80;96.30;;;;;;5020961;28;20467;-80
2022/03/30 16:50:31;;;;;;;5.50;4.90;;;1.80;96.30;;;;;;5020800;28;20404;-81
2022/03/30 16:52:57;;;;;;;6.07;4.67;;;1.90;96.30;;;;;;5003912;28;20414;-77
2022/03/30 16:55:22;;;;;;;5.53;5.03;;;1.90;96.30;;;;;;5013488;28;20165;-76
2022/03/30 16:57:48;;;;;;;6.17;5.47;;;1.90;96.30;;;;;;5008514;28;20652;-78
2022/03/30 17:00:14;;;;;;;7.03;6.00;;;1.90;96.30;;;;;;5012961;28;20246;-76
2022/03/30 17:02:39;;;;;;;6.63;6.03;;;1.90;96.30;;;;;;5033527;28;20190;-76
2022/03/30 17:05:05;;;;;;;7.53;6.83;;;1.90;96.30;;;;;;5029939;28;20891;-76
2022/03/30 17:07:30;;;;;;;7.47;6.70;;;1.90;96.30;;;;;;5013583;28;20180;-79
2022/03/30 17:10:00;;;;;;;7.50;6.67;;;2.00;96.30;;;;;;5012918;28;20264;-80
2022/03/30 17:12:27;;;;;;;9.20;7.10;;;2.00;96.30;;;;;;5026244;28;20191;-82
2022/03/30 17:14:53;;;;;;;7.60;6.63;;;2.00;96.30;;;;;;5033492;28;20498;-79
2022/03/30 17:17:19;;;;;;;8.63;7.77;;;1.90;96.30;;;;;;5033388;28;20454;-80
2022/03/30 17:19:48;;;;;;;8.63;7.60;;;2.00;96.30;;;;;;5017322;28;20422;-80
2022/03/30 17:22:15;;;;;;;10.87;7.07;;;2.00;96.30;;;;;;5015947;28;20188;-80
2022/03/30 17:24:41;;;;;;;8.80;7.90;;;1.90;96.30;;;;;;5016484;28;20446;-80
2022/03/30 17:27:07;;;;;;;8.63;7.90;;;1.90;96.30;;;;;;5016291;28;20443;-79
2022/03/30 17:29:33;;;;;;;9.03;7.90;;;1.90;96.30;;;;;;5031317;28;20168;-80
2022/03/30 17:31:59;;;;;;;7.93;7.13;;;2.00;96.30;;;;;;5015696;28;20664;-80
2022/03/30 17:34:25;;;;;;;9.17;8.37;;;1.90;96.30;;;;;;5000503;28;20502;-80
2022/03/30 17:36:51;;;;;;;8.20;7.40;;;1.90;96.30;;;;;;5013298;28;20415;-81
2022/03/30 17:39:17;;;;;;;8.97;8.10;;;2.00;96.30;;;;;;5021780;28;20177;-80
2022/03/30 17:41:42;;;;;;;8.80;8.00;;;2.00;96.30;;;;;;5002298;28;20196;-78
2022/03/30 17:44:09;;;;;;;8.63;7.80;;;1.90;96.30;;;;;;4995490;28;20216;-76
2022/03/30 17:46:37;;;;;;;8.40;6.77;;;1.90;96.30;;;;;;4995294;28;20343;-77
2022/03/30 17:51:54;;;;;;;9.20;8.23;;;1.90;96.30;;;;;;5032805;28;20446;-77
2022/03/30 17:54:21;;;;;;;8.67;7.87;;;1.90;96.30;;;;;;5032190;28;20419;-77
2022/03/30 17:56:48;;;;;;;8.53;7.63;;;1.90;96.30;;;;;;5014884;28;20438;-76
2022/03/30 17:59:14;;;;;;;8.77;7.87;;;1.80;96.30;;;;;;5032082;28;20444;-77
2022/03/30 18:01:40;;;;;;;8.30;7.60;;;1.80;96.30;;;;;;5014667;28;20431;-78
2022/03/30 18:04:08;;;;;;;8.07;7.27;;;1.80;96.30;;;;;;5005328;28;20447;-79
2022/03/30 18:06:35;;;;;;;9.03;8.10;;;1.80;96.30;;;;;;5028166;28;20177;-79
2022/03/30 18:09:01;;;;;;;8.53;7.73;;;1.80;96.30;;;;;;5012168;28;20411;-79
2022/03/30 18:11:27;;;;;;;10.40;8.60;;;1.90;96.30;;;;;;5008221;28;20450;-80
2022/03/30 18:13:54;;;;;;;9.30;8.40;;;1.80;96.30;;;;;;5033112;28;20500;-79
2022/03/30 18:16:25;;;;;;;9.77;8.70;;;1.80;96.30;;;;;;5033161;28;20422;-80
2022/03/30 18:18:51;;;;;;;10.57;8.40;;;1.80;96.30;;;;;;5016281;28;20525;-79
2022/03/30 18:21:17;;;;;;;10.60;8.70;;;1.80;96.30;;;;;;5026026;28;20436;-80
2022/03/30 18:23:43;;;;;;;9.57;8.67;;;1.90;96.30;;;;;;5027781;28;20445;-80
2022/03/30 18:26:09;;;;;;;9.97;8.97;;;1.80;96.30;;;;;;5018528;28;20183;-81
2022/03/30 18:28:35;;;;;;;10.03;9.03;;;1.80;96.30;;;;;;5020009;28;20185;-80
2022/03/30 18:31:00;;;;;;;11.30;9.63;;;1.80;96.30;;;;;;5018911;28;20937;-80
2022/03/30 18:33:26;;;;;;;10.27;9.27;;;1.80;96.30;;;;;;5009857;28;20267;-79
2022/03/30 18:35:52;;;;;;;11.10;9.83;;;1.80;96.30;;;;;;5003579;28;20187;-79